sensor_id;sensor_type;location;lat;lon;timestamp;P1;durP1;ratioP1;P2;durP2;ratioP2
16813;SDS011;8524;57.650;11.926;2022-07-29T00:00:26;3.30;;;1.73;;
16813;SDS011;8524;57.650;11.926;2022-07-29T00:02:52;4.67;;;2.10;;
16813;SDS011;8524;57.650;11.926;2022-07-29T00:05:19;2.33;;;1.67;;
16813;SDS011;8524;57.650;11.926;2022-07-29T00:07:48;4.07;;;2.00;;
16813;SDS011;8524;57.650;11.926;2022-07-29T00:10:15;3.67;;;2.20;;
16813;SDS011;8524;57.650;11.926;2022-07-29T00:12:42;3.70;;;1.97;;
16813;SDS011;8524;57.650;11.926;2022-07-29T00:15:09;2.40;;;1.93;;
16813;SDS011;8524;57.650;11.926;2022-07-29T00:17:36;2.50;;;1.70;;
16813;SDS011;8524;57.650;11.926;2022-07-29T00:20:03;2.70;;;1.73;;
16813;SDS011;8524;57.650;11.926;2022-07-29T00:22:31;1.63;;;1.40;;
16813;SDS011;8524;57.650;11.926;2022-07-29T00:24:59;1.50;;;1.40;;
16813;SDS011;8524;57.650;11.926;2022-07-29T00:27:26;3.87;;;1.80;;
16813;SDS011;8524;57.650;11.926;2022-07-29T00:29:53;3.00;;;2.00;;
16813;SDS011;8524;57.650;11.926;2022-07-29T00:32:20;4.33;;;2.57;;
16813;SDS011;8524;57.650;11.926;2022-07-29T00:34:47;3.97;;;2.30;;
16813;SDS011;8524;57.650;11.926;2022-07-29T00:37:31;3.70;;;2.10;;
16813;SDS011;8524;57.650;11.926;2022-07-29T00:39:59;4.27;;;2.10;;
16813;SDS011;8524;57.650;11.926;2022-07-29T00:42:26;2.73;;;1.73;;
16813;SDS011;8524;57.650;11.926;2022-07-29T00:44:53;2.70;;;1.63;;
16813;SDS011;8524;57.650;11.926;2022-07-29T00:47:20;3.72;;;2.00;;
16813;SDS011;8524;57.650;11.926;2022-07-29T00:49:47;4.43;;;1.83;;
16813;SDS011;8524;57.650;11.926;2022-07-29T00:52:14;1.63;;;1.50;;
16813;SDS011;8524;57.650;11.926;2022-07-29T00:54:41;2.77;;;2.00;;
16813;SDS011;8524;57.650;11.926;2022-07-29T00:57:10;2.27;;;1.60;;
16813;SDS011;8524;57.650;11.926;2022-07-29T00:59:37;2.83;;;1.87;;
16813;SDS011;8524;57.650;11.926;2022-07-29T01:02:04;3.23;;;1.77;;
16813;SDS011;8524;57.650;11.926;2022-07-29T01:04:31;2.93;;;1.70;;
16813;SDS011;8524;57.650;11.926;2022-07-29T01:06:58;3.23;;;2.00;;
16813;SDS011;8524;57.650;11.926;2022-07-29T01:09:27;3.53;;;2.20;;
16813;SDS011;8524;57.650;11.926;2022-07-29T01:11:55;2.70;;;1.67;;
16813;SDS011;8524;57.650;11.926;2022-07-29T01:14:24;3.03;;;2.13;;
16813;SDS011;8524;57.650;11.926;2022-07-29T01:16:54;1.73;;;1.63;;
16813;SDS011;8524;57.650;11.926;2022-07-29T01:19:33;2.00;;;1.80;;
16813;SDS011;8524;57.650;11.926;2022-07-29T01:22:18;4.17;;;2.07;;
16813;SDS011;8524;57.650;11.926;2022-07-29T01:24:58;1.97;;;1.60;;
16813;SDS011;8524;57.650;11.926;2022-07-29T01:27:41;1.77;;;1.63;;
16813;SDS011;8524;57.650;11.926;2022-07-29T01:30:19;2.50;;;1.90;;
16813;SDS011;8524;57.650;11.926;2022-07-29T01:32:49;3.73;;;1.80;;
16813;SDS011;8524;57.650;11.926;2022-07-29T01:35:20;2.80;;;2.03;;
16813;SDS011;8524;57.650;11.926;2022-07-29T01:37:51;3.73;;;2.17;;
16813;SDS011;8524;57.650;11.926;2022-07-29T01:40:24;5.33;;;2.30;;
16813;SDS011;8524;57.650;11.926;2022-07-29T01:42:57;4.03;;;2.10;;
16813;SDS011;8524;57.650;11.926;2022-07-29T01:45:28;2.47;;;1.90;;
16813;SDS011;8524;57.650;11.926;2022-07-29T01:48:00;2.37;;;1.57;;
16813;SDS011;8524;57.650;11.926;2022-07-29T01:50:33;4.47;;;1.80;;
16813;SDS011;8524;57.650;11.926;2022-07-29T01:53:04;2.10;;;1.73;;
16813;SDS011;8524;57.650;11.926;2022-07-29T01:55:36;3.37;;;2.00;;
16813;SDS011;8524;57.650;11.926;2022-07-29T01:58:06;2.57;;;2.00;;
16813;SDS011;8524;57.650;11.926;2022-07-29T02:00:36;2.63;;;2.00;;
16813;SDS011;8524;57.650;11.926;2022-07-29T02:03:05;2.57;;;1.87;;
16813;SDS011;8524;57.650;11.926;2022-07-29T02:05:37;2.93;;;1.43;;
16813;SDS011;8524;57.650;11.926;2022-07-29T02:08:06;2.37;;;1.90;;
16813;SDS011;8524;57.650;11.926;2022-07-29T02:10:35;2.97;;;1.53;;
16813;SDS011;8524;57.650;11.926;2022-07-29T02:13:04;2.73;;;1.80;;
16813;SDS011;8524;57.650;11.926;2022-07-29T02:15:33;2.77;;;1.90;;
16813;SDS011;8524;57.650;11.926;2022-07-29T02:18:04;2.30;;;1.60;;
16813;SDS011;8524;57.650;11.926;2022-07-29T02:20:33;2.40;;;2.00;;
16813;SDS011;8524;57.650;11.926;2022-07-29T02:23:02;3.17;;;2.10;;
16813;SDS011;8524;57.650;11.926;2022-07-29T02:25:30;3.77;;;1.80;;
16813;SDS011;8524;57.650;11.926;2022-07-29T02:27:58;3.10;;;2.00;;
16813;SDS011;8524;57.650;11.926;2022-07-29T02:30:26;2.37;;;1.93;;
16813;SDS011;8524;57.650;11.926;2022-07-29T02:32:55;3.67;;;1.90;;
16813;SDS011;8524;57.650;11.926;2022-07-29T02:35:23;2.83;;;1.90;;
16813;SDS011;8524;57.650;11.926;2022-07-29T02:37:50;2.57;;;2.10;;
16813;SDS011;8524;57.650;11.926;2022-07-29T02:40:33;1.70;;;1.50;;
16813;SDS011;8524;57.650;11.926;2022-07-29T02:43:03;1.93;;;1.73;;
16813;SDS011;8524;57.650;11.926;2022-07-29T02:45:32;3.20;;;1.70;;
16813;SDS011;8524;57.650;11.926;2022-07-29T02:48:03;2.23;;;1.60;;
16813;SDS011;8524;57.650;11.926;2022-07-29T02:50:37;2.23;;;2.00;;
16813;SDS011;8524;57.650;11.926;2022-07-29T02:53:08;2.90;;;1.90;;
16813;SDS011;8524;57.650;11.926;2022-07-29T02:55:40;3.20;;;2.03;;
16813;SDS011;8524;57.650;11.926;2022-07-29T02:58:13;3.70;;;1.87;;
16813;SDS011;8524;57.650;11.926;2022-07-29T03:00:47;3.00;;;2.00;;
16813;SDS011;8524;57.650;11.926;2022-07-29T03:03:18;2.80;;;1.93;;
16813;SDS011;8524;57.650;11.926;2022-07-29T03:05:46;3.40;;;1.77;;
16813;SDS011;8524;57.650;11.926;2022-07-29T03:08:13;3.33;;;2.00;;
16813;SDS011;8524;57.650;11.926;2022-07-29T03:10:43;2.73;;;2.00;;
16813;SDS011;8524;57.650;11.926;2022-07-29T03:13:10;3.03;;;1.97;;
16813;SDS011;8524;57.650;11.926;2022-07-29T03:15:38;3.80;;;2.07;;
16813;SDS011;8524;57.650;11.926;2022-07-29T03:18:05;3.37;;;1.90;;
16813;SDS011;8524;57.650;11.926;2022-07-29T03:20:34;3.30;;;2.10;;
16813;SDS011;8524;57.650;11.926;2022-07-29T03:23:01;1.87;;;1.77;;
16813;SDS011;8524;57.650;11.926;2022-07-29T03:25:29;2.75;;;1.80;;
16813;SDS011;8524;57.650;11.926;2022-07-29T03:27:56;2.63;;;2.07;;
16813;SDS011;8524;57.650;11.926;2022-07-29T03:30:23;1.90;;;1.70;;
16813;SDS011;8524;57.650;11.926;2022-07-29T03:32:50;2.17;;;1.70;;
16813;SDS011;8524;57.650;11.926;2022-07-29T03:35:18;3.93;;;1.77;;
16813;SDS011;8524;57.650;11.926;2022-07-29T03:37:46;1.73;;;1.60;;
16813;SDS011;8524;57.650;11.926;2022-07-29T03:40:14;2.17;;;1.70;;
16813;SDS011;8524;57.650;11.926;2022-07-29T03:42:46;2.90;;;1.87;;
16813;SDS011;8524;57.650;11.926;2022-07-29T03:45:15;2.90;;;1.80;;
16813;SDS011;8524;57.650;11.926;2022-07-29T03:47:45;2.43;;;2.10;;
16813;SDS011;8524;57.650;11.926;2022-07-29T03:50:16;2.23;;;1.70;;
16813;SDS011;8524;57.650;11.926;2022-07-29T03:52:47;2.80;;;1.80;;
16813;SDS011;8524;57.650;11.926;2022-07-29T03:55:15;3.80;;;2.23;;
16813;SDS011;8524;57.650;11.926;2022-07-29T03:57:42;3.33;;;2.55;;
16813;SDS011;8524;57.650;11.926;2022-07-29T04:00:12;2.63;;;2.10;;
16813;SDS011;8524;57.650;11.926;2022-07-29T04:02:41;2.67;;;1.80;;
16813;SDS011;8524;57.650;11.926;2022-07-29T04:05:13;2.97;;;2.10;;
16813;SDS011;8524;57.650;11.926;2022-07-29T04:07:42;2.83;;;2.37;;
16813;SDS011;8524;57.650;11.926;2022-07-29T04:10:11;5.20;;;2.63;;
16813;SDS011;8524;57.650;11.926;2022-07-29T04:12:38;3.25;;;2.20;;
16813;SDS011;8524;57.650;11.926;2022-07-29T04:15:05;2.17;;;1.97;;
16813;SDS011;8524;57.650;11.926;2022-07-29T04:17:33;2.97;;;2.30;;
16813;SDS011;8524;57.650;11.926;2022-07-29T04:20:00;2.80;;;2.00;;
16813;SDS011;8524;57.650;11.926;2022-07-29T04:22:27;3.57;;;2.00;;
16813;SDS011;8524;57.650;11.926;2022-07-29T04:24:54;3.37;;;2.13;;
16813;SDS011;8524;57.650;11.926;2022-07-29T04:27:22;3.37;;;2.17;;
16813;SDS011;8524;57.650;11.926;2022-07-29T04:29:49;4.13;;;2.30;;
16813;SDS011;8524;57.650;11.926;2022-07-29T04:32:16;2.20;;;1.93;;
16813;SDS011;8524;57.650;11.926;2022-07-29T04:34:43;1.83;;;1.73;;
16813;SDS011;8524;57.650;11.926;2022-07-29T04:37:11;3.37;;;2.00;;
16813;SDS011;8524;57.650;11.926;2022-07-29T04:39:38;2.07;;;1.70;;
16813;SDS011;8524;57.650;11.926;2022-07-29T04:42:05;4.33;;;2.23;;
16813;SDS011;8524;57.650;11.926;2022-07-29T04:44:34;3.77;;;2.20;;
16813;SDS011;8524;57.650;11.926;2022-07-29T04:47:01;3.47;;;2.23;;
16813;SDS011;8524;57.650;11.926;2022-07-29T04:49:27;2.67;;;2.00;;
16813;SDS011;8524;57.650;11.926;2022-07-29T04:51:54;3.40;;;1.93;;
16813;SDS011;8524;57.650;11.926;2022-07-29T04:54:22;3.77;;;2.50;;
16813;SDS011;8524;57.650;11.926;2022-07-29T04:56:48;4.50;;;2.70;;
16813;SDS011;8524;57.650;11.926;2022-07-29T04:59:15;3.30;;;2.40;;
16813;SDS011;8524;57.650;11.926;2022-07-29T05:01:44;4.73;;;2.43;;
16813;SDS011;8524;57.650;11.926;2022-07-29T05:04:11;2.77;;;2.03;;
16813;SDS011;8524;57.650;11.926;2022-07-29T05:06:37;3.73;;;2.30;;
16813;SDS011;8524;57.650;11.926;2022-07-29T05:09:04;3.17;;;2.40;;
16813;SDS011;8524;57.650;11.926;2022-07-29T05:11:31;3.50;;;2.70;;
16813;SDS011;8524;57.650;11.926;2022-07-29T05:13:58;7.07;;;2.60;;
16813;SDS011;8524;57.650;11.926;2022-07-29T05:16:25;4.77;;;2.63;;
16813;SDS011;8524;57.650;11.926;2022-07-29T05:18:54;5.10;;;2.90;;
16813;SDS011;8524;57.650;11.926;2022-07-29T05:21:21;6.03;;;2.23;;
16813;SDS011;8524;57.650;11.926;2022-07-29T05:23:47;3.97;;;2.10;;
16813;SDS011;8524;57.650;11.926;2022-07-29T05:26:15;4.00;;;2.47;;
16813;SDS011;8524;57.650;11.926;2022-07-29T05:28:42;3.93;;;2.50;;
16813;SDS011;8524;57.650;11.926;2022-07-29T05:31:09;4.73;;;2.50;;
16813;SDS011;8524;57.650;11.926;2022-07-29T05:33:35;4.53;;;2.57;;
16813;SDS011;8524;57.650;11.926;2022-07-29T05:36:04;3.17;;;2.37;;
16813;SDS011;8524;57.650;11.926;2022-07-29T05:38:31;3.40;;;2.00;;
16813;SDS011;8524;57.650;11.926;2022-07-29T05:40:58;5.50;;;2.63;;
16813;SDS011;8524;57.650;11.926;2022-07-29T05:43:26;4.27;;;2.40;;
16813;SDS011;8524;57.650;11.926;2022-07-29T05:45:53;5.40;;;2.50;;
16813;SDS011;8524;57.650;11.926;2022-07-29T05:48:20;2.10;;;1.73;;
16813;SDS011;8524;57.650;11.926;2022-07-29T05:50:47;3.53;;;2.00;;
16813;SDS011;8524;57.650;11.926;2022-07-29T05:53:15;4.33;;;2.30;;
16813;SDS011;8524;57.650;11.926;2022-07-29T05:55:42;4.07;;;2.30;;
16813;SDS011;8524;57.650;11.926;2022-07-29T05:58:09;3.57;;;2.10;;
16813;SDS011;8524;57.650;11.926;2022-07-29T06:00:36;4.23;;;2.03;;
16813;SDS011;8524;57.650;11.926;2022-07-29T06:03:02;3.47;;;2.03;;
16813;SDS011;8524;57.650;11.926;2022-07-29T06:05:29;4.50;;;2.30;;
16813;SDS011;8524;57.650;11.926;2022-07-29T06:07:56;5.00;;;1.70;;
16813;SDS011;8524;57.650;11.926;2022-07-29T06:10:25;2.63;;;1.57;;
16813;SDS011;8524;57.650;11.926;2022-07-29T06:12:52;3.13;;;1.60;;
16813;SDS011;8524;57.650;11.926;2022-07-29T06:15:19;3.40;;;1.63;;
16813;SDS011;8524;57.650;11.926;2022-07-29T06:17:45;3.20;;;1.53;;
16813;SDS011;8524;57.650;11.926;2022-07-29T06:20:13;4.00;;;1.70;;
16813;SDS011;8524;57.650;11.926;2022-07-29T06:22:40;3.27;;;1.63;;
16813;SDS011;8524;57.650;11.926;2022-07-29T06:25:07;4.13;;;1.90;;
16813;SDS011;8524;57.650;11.926;2022-07-29T06:27:35;3.27;;;1.70;;
16813;SDS011;8524;57.650;11.926;2022-07-29T06:30:03;2.60;;;1.23;;
16813;SDS011;8524;57.650;11.926;2022-07-29T06:32:31;3.57;;;1.60;;
16813;SDS011;8524;57.650;11.926;2022-07-29T06:34:58;2.13;;;1.33;;
16813;SDS011;8524;57.650;11.926;2022-07-29T06:37:25;3.07;;;1.50;;
16813;SDS011;8524;57.650;11.926;2022-07-29T06:39:52;2.87;;;1.70;;
16813;SDS011;8524;57.650;11.926;2022-07-29T06:42:33;3.43;;;1.70;;
16813;SDS011;8524;57.650;11.926;2022-07-29T06:45:01;4.43;;;1.67;;
16813;SDS011;8524;57.650;11.926;2022-07-29T06:47:29;3.33;;;1.80;;
16813;SDS011;8524;57.650;11.926;2022-07-29T06:49:56;3.37;;;1.43;;
16813;SDS011;8524;57.650;11.926;2022-07-29T06:52:23;2.33;;;1.33;;
16813;SDS011;8524;57.650;11.926;2022-07-29T06:54:50;4.17;;;1.50;;
16813;SDS011;8524;57.650;11.926;2022-07-29T06:57:18;2.67;;;1.50;;
16813;SDS011;8524;57.650;11.926;2022-07-29T06:59:45;3.37;;;1.40;;
16813;SDS011;8524;57.650;11.926;2022-07-29T07:02:13;5.50;;;1.37;;
16813;SDS011;8524;57.650;11.926;2022-07-29T07:04:40;2.83;;;1.43;;
16813;SDS011;8524;57.650;11.926;2022-07-29T07:07:07;3.47;;;1.50;;
16813;SDS011;8524;57.650;11.926;2022-07-29T07:09:34;2.87;;;1.30;;
16813;SDS011;8524;57.650;11.926;2022-07-29T07:12:01;2.63;;;1.47;;
16813;SDS011;8524;57.650;11.926;2022-07-29T07:14:28;4.73;;;1.73;;
16813;SDS011;8524;57.650;11.926;2022-07-29T07:16:55;3.60;;;1.50;;
16813;SDS011;8524;57.650;11.926;2022-07-29T07:19:24;3.53;;;1.50;;
16813;SDS011;8524;57.650;11.926;2022-07-29T07:21:50;3.20;;;1.50;;
16813;SDS011;8524;57.650;11.926;2022-07-29T07:24:18;2.40;;;1.30;;
16813;SDS011;8524;57.650;11.926;2022-07-29T07:26:45;3.17;;;1.63;;
16813;SDS011;8524;57.650;11.926;2022-07-29T07:29:12;2.90;;;1.40;;
16813;SDS011;8524;57.650;11.926;2022-07-29T07:31:39;2.57;;;1.40;;
16813;SDS011;8524;57.650;11.926;2022-07-29T07:34:06;3.00;;;1.23;;
16813;SDS011;8524;57.650;11.926;2022-07-29T07:36:34;2.95;;;1.50;;
16813;SDS011;8524;57.650;11.926;2022-07-29T07:39:01;3.17;;;1.37;;
16813;SDS011;8524;57.650;11.926;2022-07-29T07:41:30;1.80;;;1.27;;
16813;SDS011;8524;57.650;11.926;2022-07-29T07:43:57;3.30;;;1.37;;
16813;SDS011;8524;57.650;11.926;2022-07-29T07:46:23;3.10;;;1.50;;
16813;SDS011;8524;57.650;11.926;2022-07-29T07:48:50;2.87;;;1.40;;
16813;SDS011;8524;57.650;11.926;2022-07-29T07:51:17;2.57;;;1.40;;
16813;SDS011;8524;57.650;11.926;2022-07-29T07:53:46;2.70;;;1.47;;
16813;SDS011;8524;57.650;11.926;2022-07-29T07:56:14;2.72;;;1.45;;
16813;SDS011;8524;57.650;11.926;2022-07-29T07:58:41;3.00;;;1.33;;
16813;SDS011;8524;57.650;11.926;2022-07-29T08:01:08;4.10;;;1.77;;
16813;SDS011;8524;57.650;11.926;2022-07-29T08:03:36;2.25;;;1.48;;
16813;SDS011;8524;57.650;11.926;2022-07-29T08:06:03;3.13;;;1.77;;
16813;SDS011;8524;57.650;11.926;2022-07-29T08:08:31;2.23;;;1.40;;
16813;SDS011;8524;57.650;11.926;2022-07-29T08:10:59;2.90;;;1.20;;
16813;SDS011;8524;57.650;11.926;2022-07-29T08:13:27;3.78;;;1.60;;
16813;SDS011;8524;57.650;11.926;2022-07-29T08:15:55;3.00;;;1.40;;
16813;SDS011;8524;57.650;11.926;2022-07-29T08:18:26;2.50;;;1.23;;
16813;SDS011;8524;57.650;11.926;2022-07-29T08:20:54;4.70;;;1.53;;
16813;SDS011;8524;57.650;11.926;2022-07-29T08:23:21;2.20;;;1.38;;
16813;SDS011;8524;57.650;11.926;2022-07-29T08:25:48;3.27;;;1.50;;
16813;SDS011;8524;57.650;11.926;2022-07-29T08:28:17;2.33;;;1.37;;
16813;SDS011;8524;57.650;11.926;2022-07-29T08:30:44;4.03;;;1.70;;
16813;SDS011;8524;57.650;11.926;2022-07-29T08:33:11;4.17;;;1.40;;
16813;SDS011;8524;57.650;11.926;2022-07-29T08:35:38;4.13;;;1.50;;
16813;SDS011;8524;57.650;11.926;2022-07-29T08:38:05;2.83;;;1.40;;
16813;SDS011;8524;57.650;11.926;2022-07-29T08:40:32;3.20;;;1.73;;
16813;SDS011;8524;57.650;11.926;2022-07-29T08:42:59;3.23;;;1.53;;
16813;SDS011;8524;57.650;11.926;2022-07-29T08:45:32;2.97;;;1.27;;
16813;SDS011;8524;57.650;11.926;2022-07-29T08:48:07;2.53;;;1.70;;
16813;SDS011;8524;57.650;11.926;2022-07-29T08:50:34;2.70;;;1.50;;
16813;SDS011;8524;57.650;11.926;2022-07-29T08:53:02;9.20;;;3.17;;
16813;SDS011;8524;57.650;11.926;2022-07-29T08:55:31;4.63;;;1.97;;
16813;SDS011;8524;57.650;11.926;2022-07-29T08:57:58;3.93;;;1.50;;
16813;SDS011;8524;57.650;11.926;2022-07-29T09:00:27;2.70;;;1.50;;
16813;SDS011;8524;57.650;11.926;2022-07-29T09:02:57;3.73;;;1.47;;
16813;SDS011;8524;57.650;11.926;2022-07-29T09:05:25;3.40;;;1.50;;
16813;SDS011;8524;57.650;11.926;2022-07-29T09:07:53;2.03;;;1.02;;
16813;SDS011;8524;57.650;11.926;2022-07-29T09:10:21;2.28;;;1.17;;
16813;SDS011;8524;57.650;11.926;2022-07-29T09:12:48;3.60;;;1.80;;
16813;SDS011;8524;57.650;11.926;2022-07-29T09:15:15;1.85;;;1.20;;
16813;SDS011;8524;57.650;11.926;2022-07-29T09:17:43;2.78;;;1.30;;
16813;SDS011;8524;57.650;11.926;2022-07-29T09:20:14;2.72;;;1.35;;
16813;SDS011;8524;57.650;11.926;2022-07-29T09:22:42;2.90;;;1.30;;
16813;SDS011;8524;57.650;11.926;2022-07-29T09:25:12;2.28;;;1.20;;
16813;SDS011;8524;57.650;11.926;2022-07-29T09:27:39;2.88;;;1.30;;
16813;SDS011;8524;57.650;11.926;2022-07-29T09:30:07;1.75;;;1.27;;
16813;SDS011;8524;57.650;11.926;2022-07-29T09:35:23;3.28;;;1.45;;
16813;SDS011;8524;57.650;11.926;2022-07-29T09:37:51;3.33;;;1.23;;
16813;SDS011;8524;57.650;11.926;2022-07-29T09:40:19;2.55;;;1.20;;
16813;SDS011;8524;57.650;11.926;2022-07-29T09:42:48;2.63;;;1.33;;
16813;SDS011;8524;57.650;11.926;2022-07-29T09:45:25;2.97;;;1.30;;
16813;SDS011;8524;57.650;11.926;2022-07-29T09:47:54;3.50;;;1.20;;
16813;SDS011;8524;57.650;11.926;2022-07-29T09:50:35;1.23;;;1.10;;
16813;SDS011;8524;57.650;11.926;2022-07-29T09:53:03;1.20;;;1.08;;
16813;SDS011;8524;57.650;11.926;2022-07-29T09:55:29;1.60;;;1.30;;
16813;SDS011;8524;57.650;11.926;2022-07-29T10:00:42;3.10;;;1.20;;
16813;SDS011;8524;57.650;11.926;2022-07-29T10:03:10;3.67;;;1.35;;
16813;SDS011;8524;57.650;11.926;2022-07-29T10:05:39;2.83;;;1.40;;
16813;SDS011;8524;57.650;11.926;2022-07-29T10:08:07;3.60;;;1.20;;
16813;SDS011;8524;57.650;11.926;2022-07-29T10:10:35;1.83;;;1.38;;
16813;SDS011;8524;57.650;11.926;2022-07-29T10:13:03;2.60;;;1.40;;
16813;SDS011;8524;57.650;11.926;2022-07-29T10:15:33;2.03;;;1.30;;
16813;SDS011;8524;57.650;11.926;2022-07-29T10:18:04;1.75;;;1.30;;
16813;SDS011;8524;57.650;11.926;2022-07-29T10:20:32;2.97;;;1.30;;
16813;SDS011;8524;57.650;11.926;2022-07-29T10:23:00;2.10;;;1.08;;
16813;SDS011;8524;57.650;11.926;2022-07-29T10:25:27;2.28;;;1.40;;
16813;SDS011;8524;57.650;11.926;2022-07-29T10:27:54;2.50;;;1.13;;
16813;SDS011;8524;57.650;11.926;2022-07-29T10:30:22;2.92;;;1.20;;
16813;SDS011;8524;57.650;11.926;2022-07-29T10:32:53;2.25;;;1.20;;
16813;SDS011;8524;57.650;11.926;2022-07-29T10:35:38;1.60;;;1.15;;
16813;SDS011;8524;57.650;11.926;2022-07-29T10:38:19;1.58;;;0.95;;
16813;SDS011;8524;57.650;11.926;2022-07-29T10:41:00;1.70;;;1.02;;
16813;SDS011;8524;57.650;11.926;2022-07-29T10:43:53;2.05;;;1.20;;
16813;SDS011;8524;57.650;11.926;2022-07-29T10:46:22;2.70;;;1.30;;
16813;SDS011;8524;57.650;11.926;2022-07-29T10:49:06;1.92;;;1.10;;
16813;SDS011;8524;57.650;11.926;2022-07-29T10:54:38;2.10;;;1.20;;
16813;SDS011;8524;57.650;11.926;2022-07-29T10:57:11;3.05;;;1.17;;
16813;SDS011;8524;57.650;11.926;2022-07-29T10:59:39;1.83;;;1.13;;
16813;SDS011;8524;57.650;11.926;2022-07-29T11:05:07;1.35;;;1.08;;
16813;SDS011;8524;57.650;11.926;2022-07-29T11:07:36;3.50;;;1.20;;
16813;SDS011;8524;57.650;11.926;2022-07-29T11:10:21;2.55;;;1.23;;
16813;SDS011;8524;57.650;11.926;2022-07-29T11:12:49;2.17;;;1.20;;
16813;SDS011;8524;57.650;11.926;2022-07-29T11:15:18;2.20;;;1.10;;
16813;SDS011;8524;57.650;11.926;2022-07-29T11:18:05;2.95;;;1.20;;
16813;SDS011;8524;57.650;11.926;2022-07-29T11:20:34;3.20;;;1.20;;
16813;SDS011;8524;57.650;11.926;2022-07-29T11:23:16;2.25;;;1.23;;
16813;SDS011;8524;57.650;11.926;2022-07-29T11:28:51;2.03;;;1.00;;
16813;SDS011;8524;57.650;11.926;2022-07-29T11:31:31;1.67;;;1.02;;
16813;SDS011;8524;57.650;11.926;2022-07-29T11:37:14;2.22;;;1.20;;
16813;SDS011;8524;57.650;11.926;2022-07-29T11:39:42;2.25;;;1.15;;
16813;SDS011;8524;57.650;11.926;2022-07-29T11:45:06;2.50;;;0.98;;
16813;SDS011;8524;57.650;11.926;2022-07-29T11:47:38;2.90;;;1.30;;
16813;SDS011;8524;57.650;11.926;2022-07-29T11:50:07;2.38;;;1.30;;
16813;SDS011;8524;57.650;11.926;2022-07-29T11:52:37;3.67;;;1.30;;
16813;SDS011;8524;57.650;11.926;2022-07-29T11:55:10;2.33;;;1.10;;
16813;SDS011;8524;57.650;11.926;2022-07-29T11:57:46;3.00;;;1.20;;
16813;SDS011;8524;57.650;11.926;2022-07-29T12:00:24;2.58;;;1.15;;
16813;SDS011;8524;57.650;11.926;2022-07-29T12:02:53;3.40;;;1.10;;
16813;SDS011;8524;57.650;11.926;2022-07-29T12:05:29;2.72;;;1.20;;
16813;SDS011;8524;57.650;11.926;2022-07-29T12:08:03;1.65;;;0.90;;
16813;SDS011;8524;57.650;11.926;2022-07-29T12:10:31;2.65;;;1.10;;
16813;SDS011;8524;57.650;11.926;2022-07-29T12:13:00;1.70;;;1.10;;
16813;SDS011;8524;57.650;11.926;2022-07-29T12:15:27;1.25;;;0.80;;
16813;SDS011;8524;57.650;11.926;2022-07-29T12:17:54;1.50;;;1.10;;
16813;SDS011;8524;57.650;11.926;2022-07-29T12:20:24;1.98;;;1.00;;
16813;SDS011;8524;57.650;11.926;2022-07-29T12:22:53;1.63;;;1.00;;
16813;SDS011;8524;57.650;11.926;2022-07-29T12:25:20;2.00;;;0.98;;
16813;SDS011;8524;57.650;11.926;2022-07-29T12:27:57;2.53;;;1.20;;
16813;SDS011;8524;57.650;11.926;2022-07-29T12:30:43;1.40;;;0.82;;
16813;SDS011;8524;57.650;11.926;2022-07-29T12:33:14;2.33;;;1.00;;
16813;SDS011;8524;57.650;11.926;2022-07-29T12:35:44;1.83;;;1.13;;
16813;SDS011;8524;57.650;11.926;2022-07-29T12:38:13;2.72;;;1.25;;
16813;SDS011;8524;57.650;11.926;2022-07-29T12:40:40;3.22;;;1.40;;
16813;SDS011;8524;57.650;11.926;2022-07-29T12:43:10;3.67;;;1.50;;
16813;SDS011;8524;57.650;11.926;2022-07-29T12:45:39;2.13;;;1.20;;
16813;SDS011;8524;57.650;11.926;2022-07-29T12:48:07;3.08;;;1.40;;
16813;SDS011;8524;57.650;11.926;2022-07-29T12:50:35;2.08;;;1.08;;
16813;SDS011;8524;57.650;11.926;2022-07-29T12:53:09;2.22;;;1.33;;
16813;SDS011;8524;57.650;11.926;2022-07-29T12:55:37;2.83;;;1.48;;
16813;SDS011;8524;57.650;11.926;2022-07-29T12:58:06;1.55;;;1.08;;
16813;SDS011;8524;57.650;11.926;2022-07-29T13:00:34;2.42;;;1.20;;
16813;SDS011;8524;57.650;11.926;2022-07-29T13:03:01;1.98;;;1.20;;
16813;SDS011;8524;57.650;11.926;2022-07-29T13:05:41;3.38;;;1.20;;
16813;SDS011;8524;57.650;11.926;2022-07-29T13:08:10;3.47;;;1.30;;
16813;SDS011;8524;57.650;11.926;2022-07-29T13:10:38;4.55;;;1.42;;
16813;SDS011;8524;57.650;11.926;2022-07-29T13:13:05;1.67;;;1.20;;
16813;SDS011;8524;57.650;11.926;2022-07-29T13:15:35;1.55;;;0.98;;
16813;SDS011;8524;57.650;11.926;2022-07-29T13:18:03;2.20;;;1.30;;
16813;SDS011;8524;57.650;11.926;2022-07-29T13:20:31;2.88;;;1.30;;
16813;SDS011;8524;57.650;11.926;2022-07-29T13:22:58;1.95;;;1.20;;
16813;SDS011;8524;57.650;11.926;2022-07-29T13:25:27;2.10;;;1.20;;
16813;SDS011;8524;57.650;11.926;2022-07-29T13:27:55;2.00;;;1.10;;
16813;SDS011;8524;57.650;11.926;2022-07-29T13:30:22;2.78;;;1.23;;
16813;SDS011;8524;57.650;11.926;2022-07-29T13:32:52;1.88;;;1.17;;
16813;SDS011;8524;57.650;11.926;2022-07-29T13:35:20;1.90;;;1.23;;
16813;SDS011;8524;57.650;11.926;2022-07-29T13:37:47;2.08;;;1.05;;
16813;SDS011;8524;57.650;11.926;2022-07-29T13:40:14;1.75;;;1.20;;
16813;SDS011;8524;57.650;11.926;2022-07-29T13:42:41;2.20;;;1.30;;
16813;SDS011;8524;57.650;11.926;2022-07-29T13:45:09;2.35;;;1.42;;
16813;SDS011;8524;57.650;11.926;2022-07-29T13:47:37;4.63;;;1.30;;
16813;SDS011;8524;57.650;11.926;2022-07-29T13:50:06;2.65;;;1.20;;
16813;SDS011;8524;57.650;11.926;2022-07-29T13:52:35;1.80;;;1.05;;
16813;SDS011;8524;57.650;11.926;2022-07-29T13:55:04;1.63;;;0.93;;
16813;SDS011;8524;57.650;11.926;2022-07-29T13:57:32;1.58;;;1.00;;
16813;SDS011;8524;57.650;11.926;2022-07-29T13:59:58;3.60;;;1.20;;
16813;SDS011;8524;57.650;11.926;2022-07-29T14:02:25;2.00;;;1.15;;
16813;SDS011;8524;57.650;11.926;2022-07-29T14:04:52;2.05;;;1.25;;
16813;SDS011;8524;57.650;11.926;2022-07-29T14:07:21;3.53;;;1.30;;
16813;SDS011;8524;57.650;11.926;2022-07-29T14:09:48;1.90;;;1.10;;
16813;SDS011;8524;57.650;11.926;2022-07-29T14:12:15;2.43;;;1.20;;
16813;SDS011;8524;57.650;11.926;2022-07-29T14:14:43;2.05;;;1.20;;
16813;SDS011;8524;57.650;11.926;2022-07-29T14:17:10;3.60;;;1.00;;
16813;SDS011;8524;57.650;11.926;2022-07-29T14:19:37;2.05;;;1.02;;
16813;SDS011;8524;57.650;11.926;2022-07-29T14:22:04;1.90;;;1.35;;
16813;SDS011;8524;57.650;11.926;2022-07-29T14:24:33;1.13;;;1.00;;
16813;SDS011;8524;57.650;11.926;2022-07-29T14:27:00;1.42;;;1.10;;
16813;SDS011;8524;57.650;11.926;2022-07-29T14:29:27;2.72;;;1.27;;
16813;SDS011;8524;57.650;11.926;2022-07-29T14:31:54;2.33;;;1.17;;
16813;SDS011;8524;57.650;11.926;2022-07-29T14:34:21;1.60;;;1.20;;
16813;SDS011;8524;57.650;11.926;2022-07-29T14:36:48;2.80;;;1.40;;
16813;SDS011;8524;57.650;11.926;2022-07-29T14:39:15;2.13;;;1.00;;
16813;SDS011;8524;57.650;11.926;2022-07-29T14:41:43;1.90;;;0.93;;
16813;SDS011;8524;57.650;11.926;2022-07-29T14:44:10;2.13;;;1.00;;
16813;SDS011;8524;57.650;11.926;2022-07-29T14:46:37;2.30;;;1.17;;
16813;SDS011;8524;57.650;11.926;2022-07-29T14:49:05;2.17;;;1.00;;
16813;SDS011;8524;57.650;11.926;2022-07-29T14:51:31;1.85;;;1.00;;
16813;SDS011;8524;57.650;11.926;2022-07-29T14:53:58;2.58;;;1.38;;
16813;SDS011;8524;57.650;11.926;2022-07-29T14:56:25;1.48;;;0.90;;
16813;SDS011;8524;57.650;11.926;2022-07-29T14:58:56;2.17;;;1.10;;
16813;SDS011;8524;57.650;11.926;2022-07-29T15:01:23;1.50;;;0.98;;
16813;SDS011;8524;57.650;11.926;2022-07-29T15:03:50;1.52;;;0.90;;
16813;SDS011;8524;57.650;11.926;2022-07-29T15:06:17;2.72;;;1.30;;
16813;SDS011;8524;57.650;11.926;2022-07-29T15:08:44;1.48;;;1.00;;
16813;SDS011;8524;57.650;11.926;2022-07-29T15:11:11;1.60;;;0.90;;
16813;SDS011;8524;57.650;11.926;2022-07-29T15:13:38;3.63;;;0.93;;
16813;SDS011;8524;57.650;11.926;2022-07-29T15:16:06;3.00;;;1.00;;
16813;SDS011;8524;57.650;11.926;2022-07-29T15:18:34;1.88;;;1.00;;